createdAt,value
2019-04-23T00:00:26.463Z,5.03
2019-04-23T00:02:58.808Z,6.40
2019-04-23T00:05:41.833Z,3.97
2019-04-23T00:08:09.706Z,6.10
2019-04-23T00:10:38.854Z,5.17
2019-04-23T00:13:05.672Z,9.30
2019-04-23T00:16:08.504Z,6.20
2019-04-23T00:21:13.745Z,9.37
2019-04-23T00:23:44.635Z,5.83
2019-04-23T00:26:16.262Z,11.90
2019-04-23T00:28:50.758Z,6.53
2019-04-23T00:31:18.362Z,4.17
2019-04-23T00:33:44.818Z,6.30
2019-04-23T00:36:23.045Z,13.40
2019-04-23T00:38:59.255Z,6.17
2019-04-23T00:41:16.430Z,7.63
2019-04-23T00:43:54.549Z,9.00
2019-04-23T00:46:26.383Z,16.13
2019-04-23T00:48:57.758Z,9.43
2019-04-23T00:51:23.880Z,8.93
2019-04-23T00:53:56.828Z,9.00
2019-04-23T00:59:02.733Z,6.20
2019-04-23T01:04:23.108Z,12.03
2019-04-23T01:06:44.617Z,7.60
2019-04-23T01:09:10.459Z,8.73
2019-04-23T01:11:46.589Z,7.50
2019-04-23T01:14:13.414Z,13.23
2019-04-23T01:17:06.109Z,14.17
2019-04-23T01:21:47.521Z,11.13
2019-04-23T01:24:41.903Z,9.80
2019-04-23T01:32:42.490Z,10.63
2019-04-23T01:35:17.202Z,13.47
2019-04-23T01:37:58.194Z,7.58
2019-04-23T01:40:19.196Z,10.43
2019-04-23T01:47:54.839Z,8.60
2019-04-23T01:50:32.711Z,8.80
2019-04-23T01:53:03.957Z,12.10
2019-04-23T02:00:47.706Z,12.00
2019-04-23T02:05:42.889Z,8.47
2019-04-23T02:08:08.362Z,9.80
2019-04-23T02:13:16.356Z,8.80
2019-04-23T02:15:45.945Z,8.80
2019-04-23T02:18:17.964Z,14.43
2019-04-23T02:20:55.931Z,8.40
2019-04-23T02:26:04.789Z,7.33
2019-04-23T02:31:40.377Z,7.17
2019-04-23T02:33:53.522Z,11.57
2019-04-23T02:41:34.646Z,11.83
2019-04-23T02:43:59.551Z,8.50
2019-04-23T02:46:33.001Z,9.30
2019-04-23T02:48:59.858Z,10.40
2019-04-23T02:51:27.234Z,10.07
2019-04-23T02:54:04.012Z,11.33
2019-04-23T02:56:45.322Z,17.80
2019-04-23T03:06:38.470Z,16.13
2019-04-23T03:10:15.401Z,13.23
2019-04-23T03:11:41.829Z,10.93
2019-04-23T03:14:18.588Z,10.90
2019-04-23T03:34:21.025Z,18.27
2019-04-23T03:35:09.773Z,15.70
2019-04-23T03:37:39.662Z,15.73
2019-04-23T03:40:07.922Z,17.07
2019-04-23T03:45:29.878Z,11.03
2019-04-23T03:47:52.517Z,16.43
2019-04-23T03:50:35.383Z,13.50
2019-04-23T03:52:50.634Z,16.93
2019-04-23T03:57:52.741Z,19.10
2019-04-23T04:00:35.235Z,13.23
2019-04-23T04:03:50.235Z,17.52
2019-04-23T04:08:13.342Z,14.57
2019-04-23T04:10:36.039Z,16.57
2019-04-23T04:13:08.718Z,19.13
2019-04-23T04:15:53.408Z,16.60
2019-04-23T04:18:28.653Z,14.10
2019-04-23T04:20:53.861Z,14.70
2019-04-23T04:23:22.510Z,17.10
2019-04-23T04:25:53.510Z,18.67
2019-04-23T04:28:19.521Z,21.47
2019-04-23T04:36:13.126Z,23.43
2019-04-23T04:38:36.690Z,22.60
2019-04-23T04:41:04.266Z,20.67
2019-04-23T04:43:32.119Z,25.20
2019-04-23T04:48:33.303Z,21.13
2019-04-23T04:51:11.421Z,26.67
2019-04-23T04:56:20.955Z,26.23
2019-04-23T04:59:09.344Z,23.10
2019-04-23T05:03:29.706Z,24.07
2019-04-23T05:08:48.183Z,24.50
2019-04-23T05:11:21.504Z,28.20
2019-04-23T05:13:56.770Z,31.03
2019-04-23T05:16:16.117Z,24.10
2019-04-23T05:18:55.239Z,27.77
2019-04-23T05:21:33.153Z,23.97
2019-04-23T05:24:51.075Z,35.97
2019-04-23T05:26:27.198Z,29.90
2019-04-23T05:31:29.635Z,23.47
2019-04-23T05:34:05.952Z,18.17
2019-04-23T05:39:19.219Z,24.43
2019-04-23T05:41:41.701Z,24.87
2019-04-23T05:44:15.695Z,27.03
2019-04-23T05:46:59.915Z,23.37
2019-04-23T05:56:53.499Z,30.40
2019-04-23T05:59:24.699Z,25.63
2019-04-23T06:01:58.699Z,24.67
2019-04-23T06:04:32.462Z,25.30
2019-04-23T06:07:15.116Z,25.27
2019-04-23T06:09:31.293Z,22.23
2019-04-23T06:14:40.549Z,21.10
2019-04-23T06:19:42.490Z,21.90
2019-04-23T06:24:57.921Z,22.13
2019-04-23T06:27:24.364Z,25.97
2019-04-23T06:29:43.227Z,20.23
2019-04-23T06:32:22.744Z,22.23
2019-04-23T06:34:47.976Z,27.93
2019-04-23T06:37:28.391Z,21.43
2019-04-23T06:39:48.366Z,27.57
2019-04-23T06:42:23.110Z,22.67
2019-04-23T06:47:24.858Z,22.07
2019-04-23T06:49:55.343Z,21.23
2019-04-23T06:52:30.109Z,25.90
2019-04-23T06:57:26.952Z,20.30
2019-04-23T07:00:06.577Z,19.63
2019-04-23T07:02:42.133Z,25.30
2019-04-23T07:05:14.592Z,29.57
2019-04-23T07:10:14.758Z,19.37
2019-04-23T07:12:41.462Z,22.00
2019-04-23T07:17:39.497Z,19.00
2019-04-23T07:22:50.611Z,23.73
2019-04-23T07:25:17.785Z,25.23
2019-04-23T07:27:49.360Z,19.10
2019-04-23T07:30:31.534Z,27.13
2019-04-23T07:35:38.263Z,18.63
2019-04-23T07:38:01.798Z,27.22
2019-04-23T07:40:31.248Z,17.80
2019-04-23T07:43:08.351Z,25.20
2019-04-23T07:46:12.301Z,21.60
2019-04-23T07:48:37.024Z,17.23
2019-04-23T07:51:31.549Z,19.83
2019-04-23T07:53:48.336Z,24.33
2019-04-23T07:56:13.135Z,20.77
2019-04-23T07:58:39.288Z,18.80
2019-04-23T08:01:14.215Z,20.63
2019-04-23T08:03:48.377Z,20.30
2019-04-23T08:06:16.535Z,22.20
2019-04-23T08:08:50.563Z,23.93
2019-04-23T08:13:58.706Z,20.10
2019-04-23T08:24:43.414Z,19.43
2019-04-23T08:29:50.878Z,18.43
2019-04-23T08:32:18.653Z,29.30
2019-04-23T08:34:56.420Z,18.87
2019-04-23T08:37:26.921Z,15.50
2019-04-23T08:42:46.887Z,21.90
2019-04-23T08:45:28.675Z,15.87
2019-04-23T08:48:01.221Z,17.67
2019-04-23T08:50:27.449Z,16.97
2019-04-23T08:53:15.003Z,17.93
2019-04-23T08:55:34.885Z,18.53
2019-04-23T08:58:02.224Z,21.97
2019-04-23T09:00:33.838Z,17.20
2019-04-23T09:03:06.234Z,16.30
2019-04-23T09:08:15.110Z,18.43
2019-04-23T09:10:40.961Z,17.63
2019-04-23T09:13:33.354Z,17.33
2019-04-23T09:15:45.040Z,24.07
2019-04-23T09:18:16.431Z,34.30
2019-04-23T09:20:35.885Z,21.80
2019-04-23T09:23:23.802Z,17.30
2019-04-23T09:30:57.820Z,22.07
2019-04-23T09:33:46.829Z,19.43
2019-04-23T09:36:51.562Z,20.50
2019-04-23T09:42:31.888Z,19.10
2019-04-23T09:45:23.318Z,17.80
2019-04-23T09:48:01.541Z,16.90
2019-04-23T09:50:46.836Z,24.00
2019-04-23T09:55:38.826Z,22.03
2019-04-23T10:00:59.092Z,21.93
2019-04-23T10:03:04.863Z,21.03
2019-04-23T10:05:33.549Z,26.10
2019-04-23T10:08:03.086Z,22.53
2019-04-23T10:10:28.149Z,24.53
2019-04-23T10:12:58.111Z,25.67
2019-04-23T10:15:36.220Z,21.50
2019-04-23T10:18:02.492Z,18.43
2019-04-23T10:20:31.837Z,24.37
2019-04-23T10:23:02.247Z,20.03
2019-04-23T10:25:31.996Z,22.37
2019-04-23T10:28:06.714Z,20.77
2019-04-23T10:30:36.473Z,21.33
2019-04-23T10:33:07.520Z,27.73
2019-04-23T10:35:46.105Z,18.10
2019-04-23T10:38:14.442Z,21.80
2019-04-23T10:40:45.901Z,27.83
2019-04-23T10:43:12.993Z,26.87
2019-04-23T10:46:13.635Z,22.17
2019-04-23T10:49:31.712Z,16.50
2019-04-23T10:52:04.908Z,18.67
2019-04-23T10:54:34.280Z,23.30
2019-04-23T10:56:59.056Z,28.20
2019-04-23T10:59:40.396Z,20.50
2019-04-23T11:02:29.295Z,23.93
2019-04-23T11:10:03.669Z,16.93
2019-04-23T11:20:31.426Z,24.30
2019-04-23T11:22:58.985Z,19.23
2019-04-23T11:25:32.991Z,26.20
2019-04-23T11:28:03.065Z,20.63
2019-04-23T11:30:41.172Z,18.63
2019-04-23T11:33:09.112Z,18.20
2019-04-23T11:38:35.496Z,19.60
2019-04-23T11:41:11.749Z,29.83
2019-04-23T11:45:51.210Z,25.87
2019-04-23T11:48:33.296Z,43.60
2019-04-23T11:53:23.634Z,27.60
2019-04-23T11:56:02.641Z,31.20
2019-04-23T12:03:58.710Z,25.10
2019-04-23T12:06:36.657Z,32.47
2019-04-23T12:09:25.628Z,23.53
2019-04-23T12:12:04.183Z,34.23
2019-04-23T12:17:13.006Z,23.47
2019-04-23T12:24:56.882Z,25.43
2019-04-23T12:27:06.145Z,21.53
2019-04-23T12:40:15.686Z,22.50
2019-04-23T12:55:26.046Z,21.50
2019-04-23T13:00:25.693Z,24.17
2019-04-23T13:02:58.889Z,16.00
2019-04-23T13:08:00.535Z,23.77
2019-04-23T13:10:35.497Z,32.70
2019-04-23T13:13:11.286Z,23.10
2019-04-23T13:15:37.364Z,27.67
2019-04-23T13:18:03.023Z,24.00
2019-04-23T13:20:33.874Z,20.83
2019-04-23T13:23:11.812Z,18.43
2019-04-23T13:28:21.102Z,15.50
2019-04-23T13:33:35.127Z,24.70
2019-04-23T13:36:18.879Z,33.77
2019-04-23T13:43:43.734Z,31.90
2019-04-23T13:48:31.492Z,42.73
2019-04-23T13:51:19.493Z,34.33
2019-04-23T13:56:11.265Z,28.80
2019-04-23T13:58:44.889Z,22.30
2019-04-23T14:01:26.293Z,21.30
2019-04-23T14:03:50.487Z,23.00
2019-04-23T14:06:27.604Z,18.97
2019-04-23T14:08:55.410Z,17.67
2019-04-23T14:11:23.207Z,20.00
2019-04-23T14:14:08.544Z,24.33
2019-04-23T14:16:28.657Z,19.27
2019-04-23T14:18:58.438Z,16.43
2019-04-23T14:21:24.812Z,23.30
2019-04-23T14:26:29.645Z,22.40
2019-04-23T14:28:51.149Z,28.73
2019-04-23T14:31:42.920Z,16.23
2019-04-23T14:34:20.878Z,17.33
2019-04-23T14:41:42.514Z,20.67
2019-04-23T14:44:19.848Z,16.93
2019-04-23T14:49:25.561Z,16.50
2019-04-23T14:51:58.941Z,19.53
2019-04-23T14:57:09.842Z,16.10
2019-04-23T14:59:30.719Z,19.07
2019-04-23T15:02:05.489Z,16.23
2019-04-23T15:04:41.179Z,17.20
2019-04-23T15:07:15.646Z,16.20
2019-04-23T15:09:53.459Z,20.50
2019-04-23T15:12:25.958Z,17.63
2019-04-23T15:14:51.179Z,20.73
2019-04-23T15:17:23.365Z,25.53
2019-04-23T15:20:03.027Z,16.63
2019-04-23T15:25:21.398Z,13.73
2019-04-23T15:28:05.873Z,26.93
2019-04-23T15:29:58.186Z,15.03
2019-04-23T15:32:53.589Z,16.77
2019-04-23T15:35:31.613Z,17.63
2019-04-23T15:38:00.511Z,20.33
2019-04-23T15:40:16.488Z,32.57
2019-04-23T15:42:51.574Z,23.43
2019-04-23T15:45:19.307Z,16.97
2019-04-23T15:47:48.518Z,15.80
2019-04-23T15:50:23.572Z,17.80
2019-04-23T15:55:22.559Z,16.40
2019-04-23T16:00:24.822Z,17.77
2019-04-23T16:02:29.136Z,15.93
2019-04-23T16:05:00.044Z,19.87
2019-04-23T16:07:50.924Z,17.10
2019-04-23T16:10:49.147Z,18.43
2019-04-23T16:13:05.825Z,13.13
2019-04-23T16:15:29.086Z,18.80
2019-04-23T16:18:23.691Z,22.93
2019-04-23T16:23:21.544Z,16.43
2019-04-23T16:25:49.819Z,16.97
2019-04-23T16:28:28.957Z,26.73
2019-04-23T16:31:09.443Z,13.90
2019-04-23T16:33:20.649Z,17.60
2019-04-23T16:36:16.710Z,16.33
2019-04-23T16:38:38.335Z,17.53
2019-04-23T16:41:09.936Z,18.80
2019-04-23T16:43:35.486Z,22.00
2019-04-23T16:48:55.313Z,18.33
2019-04-23T16:53:38.321Z,12.50
2019-04-23T16:56:18.493Z,19.83
2019-04-23T16:58:54.630Z,26.40
2019-04-23T17:01:24.895Z,52.53
2019-04-23T17:04:01.045Z,23.20
2019-04-23T17:06:27.126Z,16.80
2019-04-23T17:08:57.732Z,17.43
2019-04-23T17:11:25.267Z,13.70
2019-04-23T17:14:02.759Z,28.63
2019-04-23T17:19:01.995Z,18.83
2019-04-23T17:21:29.856Z,24.32
2019-04-23T17:24:15.371Z,20.30
2019-04-23T17:26:37.377Z,13.77
2019-04-23T17:34:24.430Z,20.53
2019-04-23T17:37:01.084Z,16.17
2019-04-23T17:40:00.927Z,21.50
2019-04-23T17:48:12.901Z,23.83
2019-04-23T17:53:25.312Z,25.43
2019-04-23T17:56:18.486Z,25.43
2019-04-23T17:58:31.792Z,19.20
2019-04-23T18:01:17.643Z,17.90
2019-04-23T18:03:50.209Z,25.27
2019-04-23T18:06:21.341Z,20.70
2019-04-23T18:13:54.943Z,20.60
2019-04-23T18:16:30.765Z,19.43
2019-04-23T18:21:46.172Z,22.83
2019-04-23T18:27:18.051Z,19.73
2019-04-23T18:37:49.131Z,20.17
2019-04-23T18:40:21.365Z,21.30
2019-04-23T18:42:53.503Z,21.87
2019-04-23T18:45:35.565Z,20.30
2019-04-23T18:48:27.419Z,17.63
2019-04-23T18:53:33.768Z,19.40
2019-04-23T18:56:03.594Z,17.00
2019-04-23T18:58:22.429Z,18.23
2019-04-23T19:04:19.663Z,21.60
2019-04-23T19:06:38.312Z,26.93
2019-04-23T19:10:02.173Z,22.27
2019-04-23T19:12:25.148Z,28.20
2019-04-23T19:17:42.933Z,30.90
2019-04-23T19:20:16.290Z,28.30
2019-04-23T19:22:28.144Z,22.13
2019-04-23T19:24:53.394Z,22.90
2019-04-23T19:27:37.172Z,20.30
2019-04-23T19:38:17.899Z,19.30
2019-04-23T19:43:26.392Z,27.90
2019-04-23T19:46:09.376Z,25.10
2019-04-23T19:48:25.315Z,22.03
2019-04-23T19:51:09.535Z,16.87
2019-04-23T19:53:43.104Z,35.87
2019-04-23T19:56:08.803Z,19.40
2019-04-23T19:58:46.158Z,27.30
2019-04-23T20:11:08.065Z,18.73
2019-04-23T20:21:14.978Z,19.60
2019-04-23T20:24:04.104Z,27.43
2019-04-23T20:34:31.209Z,32.63
2019-04-23T20:36:49.112Z,21.93
2019-04-23T20:39:32.729Z,31.50
2019-04-23T20:42:08.997Z,27.73
2019-04-23T20:44:44.960Z,21.77
2019-04-23T20:49:40.782Z,21.90
2019-04-23T20:52:04.689Z,22.60
2019-04-23T20:54:50.871Z,23.23
2019-04-23T20:57:43.914Z,23.37
2019-04-23T21:05:19.601Z,25.20
2019-04-23T21:07:57.530Z,27.60
2019-04-23T21:10:32.623Z,30.80
2019-04-23T21:13:06.771Z,25.40
2019-04-23T21:31:00.901Z,26.33
2019-04-23T21:33:28.491Z,27.27
2019-04-23T21:36:18.404Z,32.77
2019-04-23T21:39:03.525Z,29.33
2019-04-23T21:49:20.937Z,32.17
2019-04-23T21:51:45.517Z,29.50
2019-04-23T21:53:58.498Z,26.30
2019-04-23T21:56:37.206Z,33.30
2019-04-23T21:59:06.842Z,29.97
2019-04-23T22:01:44.288Z,29.48
2019-04-23T22:04:17.364Z,26.90
2019-04-23T22:06:59.094Z,25.43
2019-04-23T22:09:21.222Z,43.87
2019-04-23T22:11:57.002Z,27.07
2019-04-23T22:14:20.245Z,34.33
2019-04-23T22:24:21.587Z,36.80
2019-04-23T22:26:53.313Z,28.90
2019-04-23T22:29:33.460Z,29.87
2019-04-23T22:32:02.849Z,26.70
2019-04-23T22:34:42.115Z,36.13
2019-04-23T22:37:12.207Z,34.47
2019-04-23T22:39:41.895Z,31.13
2019-04-23T22:47:07.254Z,31.00
2019-04-23T22:50:02.612Z,33.10
2019-04-23T22:55:02.271Z,38.63
2019-04-23T22:57:45.195Z,27.30
2019-04-23T23:00:13.030Z,31.90
2019-04-23T23:02:54.083Z,27.35
2019-04-23T23:05:14.171Z,37.00
2019-04-23T23:07:55.747Z,34.27
2019-04-23T23:10:12.921Z,35.00
2019-04-23T23:12:51.283Z,33.87
2019-04-23T23:15:19.392Z,34.00
2019-04-23T23:18:03.135Z,30.90
2019-04-23T23:20:21.089Z,36.40
2019-04-23T23:23:05.670Z,32.10
2019-04-23T23:27:57.691Z,35.20
2019-04-23T23:30:26.671Z,37.97
2019-04-23T23:32:55.622Z,31.87
2019-04-23T23:38:01.736Z,33.93
2019-04-23T23:40:30.295Z,32.73
2019-04-23T23:45:35.415Z,32.87
2019-04-23T23:50:50.153Z,36.70
2019-04-23T23:55:38.751Z,34.97
2019-04-23T23:58:20.422Z,32.53
